createdAt,value
2023-04-30T00:00:10.840Z,100537.88
2023-04-30T00:03:01.932Z,100534.73
2023-04-30T00:05:33.108Z,100530.32
2023-04-30T00:08:04.327Z,100528.41
2023-04-30T00:10:35.271Z,100528.86
2023-04-30T00:13:06.288Z,100529.41
2023-04-30T00:15:37.160Z,100524.56
2023-04-30T00:18:08.392Z,100528.36
2023-04-30T00:20:39.390Z,100525.77
2023-04-30T00:23:10.340Z,100525.30
2023-04-30T00:25:41.274Z,100523.20
2023-04-30T00:28:13.257Z,100523.02
2023-04-30T00:30:44.062Z,100520.17
2023-04-30T00:33:15.074Z,100519.97
2023-04-30T00:35:45.794Z,100519.50
2023-04-30T00:38:16.833Z,100516.79
2023-04-30T00:40:47.502Z,100518.40
2023-04-30T00:43:18.442Z,100516.71
2023-04-30T00:45:49.206Z,100517.68
2023-04-30T00:48:19.925Z,100516.71
2023-04-30T00:50:50.566Z,100514.39
2023-04-30T00:53:21.538Z,100512.96
2023-04-30T00:55:52.259Z,100515.06
2023-04-30T00:58:23.151Z,100515.54
2023-04-30T01:00:53.816Z,100509.69
2023-04-30T01:03:24.849Z,100512.52
2023-04-30T01:05:55.842Z,100510.80
2023-04-30T01:08:26.679Z,100514.25
2023-04-30T01:10:59.133Z,100511.46
2023-04-30T01:13:30.813Z,100509.74
2023-04-30T01:16:04.028Z,100508.50
2023-04-30T01:18:36.796Z,100504.77
2023-04-30T01:21:07.605Z,100496.73
2023-04-30T01:23:43.754Z,100497.88
2023-04-30T01:26:15.234Z,100499.00
2023-04-30T01:28:45.971Z,100500.33
2023-04-30T01:31:17.738Z,100501.20
2023-04-30T01:33:48.602Z,100498.67
2023-04-30T01:36:22.817Z,100492.62
2023-04-30T01:38:57.468Z,100497.16
2023-04-30T01:41:31.160Z,100493.58
2023-04-30T01:44:04.365Z,100494.13
2023-04-30T01:46:35.888Z,100490.00
2023-04-30T01:49:09.163Z,100487.73
2023-04-30T01:51:41.496Z,100485.62
2023-04-30T01:54:13.649Z,100485.66
2023-04-30T01:56:45.565Z,100492.42
2023-04-30T01:59:16.623Z,100488.55
2023-04-30T02:01:47.949Z,100495.16
2023-04-30T02:04:18.685Z,100493.02
2023-04-30T02:06:49.554Z,100493.15
2023-04-30T02:09:20.379Z,100496.17
2023-04-30T02:11:51.497Z,100495.95
2023-04-30T02:14:22.240Z,100496.27
2023-04-30T02:16:53.004Z,100495.50
2023-04-30T02:19:23.766Z,100493.46
2023-04-30T02:21:54.650Z,100495.46
2023-04-30T02:24:25.400Z,100492.48
2023-04-30T02:26:56.168Z,100494.30
2023-04-30T02:29:26.914Z,100493.33
2023-04-30T02:31:59.165Z,100494.05
2023-04-30T02:34:29.890Z,100494.16
2023-04-30T02:37:00.924Z,100497.15
2023-04-30T02:39:31.655Z,100494.50
2023-04-30T02:42:02.452Z,100497.23
2023-04-30T02:44:33.305Z,100493.69
2023-04-30T02:47:04.090Z,100494.67
2023-04-30T02:49:34.789Z,100496.54
2023-04-30T02:52:06.163Z,100495.71
2023-04-30T02:54:37.076Z,100494.42
2023-04-30T02:57:08.130Z,100495.84
2023-04-30T02:59:38.910Z,100491.46
2023-04-30T03:02:09.859Z,100496.25
2023-04-30T03:04:40.827Z,100496.33
2023-04-30T03:07:11.596Z,100497.25
2023-04-30T03:09:42.424Z,100495.52
2023-04-30T03:12:14.661Z,100499.25
2023-04-30T03:14:45.416Z,100495.11
2023-04-30T03:17:16.716Z,100494.04
2023-04-30T03:19:47.443Z,100493.81
2023-04-30T03:22:19.567Z,100494.20
2023-04-30T03:24:50.253Z,100494.66
2023-04-30T03:27:21.078Z,100494.33
2023-04-30T03:29:52.063Z,100498.12
2023-04-30T03:32:23.109Z,100499.77
2023-04-30T03:34:54.009Z,100501.27
2023-04-30T03:37:24.807Z,100505.34
2023-04-30T03:39:55.902Z,100511.36
2023-04-30T03:42:26.744Z,100519.35
2023-04-30T03:44:57.371Z,100519.13
2023-04-30T03:47:28.221Z,100519.19
2023-04-30T03:49:58.850Z,100521.14
2023-04-30T03:52:29.608Z,100521.88
2023-04-30T03:55:00.208Z,100527.42
2023-04-30T03:57:31.099Z,100525.36
2023-04-30T04:00:01.968Z,100523.91
2023-04-30T04:02:34.141Z,100522.48
2023-04-30T04:05:05.051Z,100522.61
2023-04-30T04:07:35.946Z,100524.30
2023-04-30T04:10:08.218Z,100524.04
2023-04-30T04:12:39.052Z,100523.98
2023-04-30T04:15:11.100Z,100526.45
2023-04-30T04:17:41.840Z,100531.71
2023-04-30T04:20:14.169Z,100531.64
2023-04-30T04:22:45.182Z,100530.21
2023-04-30T04:25:18.213Z,100531.33
2023-04-30T04:27:49.248Z,100531.98
2023-04-30T04:30:20.073Z,100537.20
2023-04-30T04:32:54.055Z,100538.80
2023-04-30T04:35:24.870Z,100542.45
2023-04-30T04:37:56.494Z,100543.65
2023-04-30T04:40:28.676Z,100546.58
2023-04-30T04:43:00.933Z,100547.56
2023-04-30T04:45:33.720Z,100548.77
2023-04-30T04:48:04.592Z,100545.14
2023-04-30T04:50:36.275Z,100550.96
2023-04-30T04:53:07.172Z,100549.66
2023-04-30T04:55:38.091Z,100545.59
2023-04-30T04:58:08.786Z,100548.90
2023-04-30T05:00:39.865Z,100546.11
2023-04-30T05:03:10.852Z,100547.20
2023-04-30T05:05:41.686Z,100551.30
2023-04-30T05:08:12.490Z,100550.17
2023-04-30T05:10:43.332Z,100553.19
2023-04-30T05:13:14.108Z,100552.15
2023-04-30T05:15:45.321Z,100552.46
2023-04-30T05:18:16.376Z,100555.77
2023-04-30T05:20:47.030Z,100556.13
2023-04-30T05:23:17.853Z,100554.33
2023-04-30T05:25:48.966Z,100556.73
2023-04-30T05:28:19.734Z,100560.58
2023-04-30T05:30:50.605Z,100561.82
2023-04-30T05:33:21.465Z,100562.12
2023-04-30T05:35:52.319Z,100564.48
2023-04-30T05:38:23.202Z,100569.27
2023-04-30T05:40:54.121Z,100565.96
2023-04-30T05:43:25.426Z,100564.42
2023-04-30T05:45:56.974Z,100570.91
2023-04-30T05:48:27.888Z,100566.20
2023-04-30T05:50:58.900Z,100566.43
2023-04-30T05:53:29.505Z,100567.70
2023-04-30T05:56:00.190Z,100568.75
2023-04-30T05:58:31.238Z,100569.21
2023-04-30T06:01:02.649Z,100566.27
2023-04-30T06:03:33.323Z,100565.89
2023-04-30T06:06:04.292Z,100567.27
2023-04-30T06:08:34.951Z,100565.78
2023-04-30T06:11:06.488Z,100568.09
2023-04-30T06:13:37.384Z,100567.51
2023-04-30T06:16:08.894Z,100569.50
2023-04-30T06:18:39.775Z,100574.44
2023-04-30T06:21:11.931Z,100574.58
2023-04-30T06:23:44.351Z,100571.62
2023-04-30T06:26:16.926Z,100573.17
2023-04-30T06:28:48.876Z,100574.67
2023-04-30T06:31:19.959Z,100575.79
2023-04-30T06:33:51.958Z,100572.96
2023-04-30T06:36:22.935Z,100576.10
2023-04-30T06:38:55.025Z,100574.54
2023-04-30T06:41:27.164Z,100572.46
2023-04-30T06:43:58.588Z,100572.48
2023-04-30T06:46:29.974Z,100567.96
2023-04-30T06:49:01.998Z,100562.71
2023-04-30T06:51:33.933Z,100565.59
2023-04-30T06:54:05.251Z,100559.73
2023-04-30T06:56:36.964Z,100562.80
2023-04-30T06:59:08.926Z,100560.52
2023-04-30T07:01:40.366Z,100559.88
2023-04-30T07:04:12.602Z,100558.35
2023-04-30T07:06:44.021Z,100558.30
2023-04-30T07:09:15.757Z,100555.59
2023-04-30T07:11:47.489Z,100558.09
2023-04-30T07:14:18.588Z,100562.34
2023-04-30T07:16:50.976Z,100562.07
2023-04-30T07:19:22.061Z,100561.45
2023-04-30T07:28:50.094Z,100558.06
2023-04-30T07:31:21.405Z,100554.47
2023-04-30T07:33:52.425Z,100553.20
2023-04-30T07:36:23.191Z,100552.73
2023-04-30T07:38:53.952Z,100551.85
2023-04-30T07:41:25.542Z,100552.00
2023-04-30T07:43:56.325Z,100552.65
2023-04-30T07:46:27.240Z,100551.48
2023-04-30T07:48:58.152Z,100550.64
2023-04-30T07:51:29.179Z,100551.30
2023-04-30T07:54:00.145Z,100552.45
2023-04-30T07:56:30.955Z,100550.72
2023-04-30T07:59:01.831Z,100545.98
2023-04-30T08:01:32.906Z,100545.98
2023-04-30T08:04:03.893Z,100542.02
2023-04-30T08:06:34.715Z,100540.87
2023-04-30T08:09:05.912Z,100535.37
2023-04-30T08:11:36.854Z,100533.88
2023-04-30T08:14:09.248Z,100534.00
2023-04-30T08:16:40.237Z,100531.75
2023-04-30T08:19:11.100Z,100530.67
2023-04-30T08:21:42.085Z,100525.59
2023-04-30T08:24:12.845Z,100523.77
2023-04-30T08:26:43.700Z,100520.20
2023-04-30T08:29:14.551Z,100516.11
2023-04-30T08:31:45.413Z,100517.48
2023-04-30T08:34:16.235Z,100517.05
2023-04-30T08:36:47.058Z,100510.02
2023-04-30T08:39:17.837Z,100507.42
2023-04-30T08:41:48.984Z,100508.70
2023-04-30T08:44:19.880Z,100509.98
2023-04-30T08:46:50.780Z,100510.23
2023-04-30T08:49:23.350Z,100513.29
2023-04-30T08:51:55.543Z,100512.79
2023-04-30T08:54:26.371Z,100509.08
2023-04-30T08:56:57.269Z,100508.27
2023-04-30T08:59:28.050Z,100506.61
2023-04-30T09:01:59.033Z,100504.92
2023-04-30T09:04:29.891Z,100506.02
2023-04-30T09:07:02.912Z,100502.85
2023-04-30T09:09:39.065Z,100499.59
2023-04-30T09:12:19.309Z,100500.30
2023-04-30T09:15:10.266Z,100500.36
2023-04-30T09:17:41.342Z,100494.26
2023-04-30T09:20:13.213Z,100492.36
2023-04-30T09:22:44.014Z,100491.64
2023-04-30T09:25:14.873Z,100487.75
2023-04-30T09:27:48.416Z,100490.28
2023-04-30T09:30:33.912Z,100486.55
2023-04-30T09:33:05.185Z,100483.20
2023-04-30T09:35:40.226Z,100482.85
2023-04-30T09:38:26.554Z,100484.38
2023-04-30T09:40:59.255Z,100479.64
2023-04-30T09:43:31.069Z,100473.70
2023-04-30T09:46:02.114Z,100466.00
2023-04-30T09:48:33.049Z,100457.79
2023-04-30T09:51:03.902Z,100455.27
2023-04-30T09:53:34.827Z,100457.36
2023-04-30T09:56:05.890Z,100452.91
2023-04-30T09:58:38.304Z,100448.43
2023-04-30T10:01:11.554Z,100450.65
2023-04-30T10:03:43.002Z,100449.83
2023-04-30T10:06:15.792Z,100449.57
2023-04-30T10:08:47.603Z,100446.39
2023-04-30T10:11:19.938Z,100445.67
2023-04-30T10:13:53.846Z,100450.13
2023-04-30T10:16:31.996Z,100448.02
2023-04-30T10:19:04.699Z,100441.73
2023-04-30T10:21:35.607Z,100438.52
2023-04-30T10:24:06.856Z,100438.73
2023-04-30T10:26:37.717Z,100440.41
2023-04-30T10:29:08.626Z,100432.61
2023-04-30T10:31:39.453Z,100434.95
2023-04-30T10:34:12.876Z,100431.08
2023-04-30T10:36:44.913Z,100430.33
2023-04-30T10:39:15.831Z,100434.20
2023-04-30T10:41:49.167Z,100432.02
2023-04-30T10:44:24.346Z,100428.31
2023-04-30T10:47:02.686Z,100425.11
2023-04-30T10:49:34.318Z,100421.63
2023-04-30T10:52:05.703Z,100418.52
2023-04-30T10:54:43.541Z,100415.56
2023-04-30T10:57:14.881Z,100418.21
2023-04-30T10:59:54.289Z,100419.73
2023-04-30T11:02:25.396Z,100425.92
2023-04-30T11:05:17.577Z,100414.09
2023-04-30T11:07:51.979Z,100418.06
2023-04-30T11:10:24.322Z,100415.50
2023-04-30T11:12:56.199Z,100413.67
2023-04-30T11:15:28.312Z,100410.06
2023-04-30T11:18:02.608Z,100411.05
2023-04-30T11:20:33.554Z,100411.66
2023-04-30T11:23:21.781Z,100410.23
2023-04-30T11:26:01.201Z,100396.57
2023-04-30T11:28:34.985Z,100400.00
2023-04-30T11:31:06.113Z,100397.11
2023-04-30T11:33:37.045Z,100399.19
2023-04-30T11:36:10.837Z,100397.15
2023-04-30T11:38:43.702Z,100395.69
2023-04-30T11:41:14.997Z,100400.30
2023-04-30T11:43:47.055Z,100392.02
2023-04-30T11:46:18.894Z,100383.31
2023-04-30T11:49:04.198Z,100387.27
2023-04-30T11:51:59.044Z,100390.98
2023-04-30T11:54:43.717Z,100387.09
2023-04-30T11:57:15.206Z,100388.80
2023-04-30T11:59:47.862Z,100384.23
2023-04-30T12:02:31.466Z,100383.70
2023-04-30T12:05:06.995Z,100377.82
2023-04-30T12:07:38.124Z,100372.78
2023-04-30T12:10:20.322Z,100369.84
2023-04-30T12:12:53.348Z,100369.24
2023-04-30T12:15:27.140Z,100367.45
2023-04-30T12:17:59.020Z,100365.80
2023-04-30T12:20:31.039Z,100359.67
2023-04-30T12:23:02.126Z,100355.61
2023-04-30T12:25:33.865Z,100350.30
2023-04-30T12:28:04.672Z,100354.61
2023-04-30T12:30:35.906Z,100359.36
2023-04-30T12:33:07.712Z,100360.40
2023-04-30T12:35:38.620Z,100352.27
2023-04-30T12:38:11.550Z,100359.70
2023-04-30T12:40:48.269Z,100354.77
2023-04-30T12:43:22.620Z,100354.02
2023-04-30T12:45:58.861Z,100347.41
2023-04-30T12:48:29.866Z,100335.13
2023-04-30T12:51:05.246Z,100335.36
2023-04-30T12:53:36.538Z,100336.92
2023-04-30T12:56:14.624Z,100334.80
2023-04-30T12:58:47.621Z,100330.77
2023-04-30T13:01:24.589Z,100329.64
2023-04-30T13:04:01.518Z,100334.02
2023-04-30T13:06:35.514Z,100329.25
2023-04-30T13:09:07.556Z,100324.96
2023-04-30T13:11:40.807Z,100319.16
2023-04-30T13:14:13.220Z,100318.30
2023-04-30T13:16:45.176Z,100318.20
2023-04-30T13:19:18.262Z,100316.58
2023-04-30T13:21:51.970Z,100317.91
2023-04-30T13:24:22.838Z,100311.29
2023-04-30T13:26:53.705Z,100311.41
2023-04-30T13:29:30.596Z,100304.73
2023-04-30T13:32:01.470Z,100305.67
2023-04-30T13:34:32.254Z,100295.66
2023-04-30T13:37:03.275Z,100294.48
2023-04-30T13:39:34.271Z,100300.30
2023-04-30T13:42:05.492Z,100304.86
2023-04-30T13:44:37.495Z,100300.73
2023-04-30T13:47:10.507Z,100305.14
2023-04-30T13:49:41.145Z,100300.30
2023-04-30T13:52:13.540Z,100304.84
2023-04-30T13:54:44.511Z,100307.15
2023-04-30T13:57:15.281Z,100309.15
2023-04-30T13:59:46.206Z,100310.95
2023-04-30T14:02:17.491Z,100310.97
2023-04-30T14:05:04.653Z,100308.40
2023-04-30T14:07:37.495Z,100308.70
2023-04-30T14:10:09.414Z,100307.22
2023-04-30T14:12:40.530Z,100304.27
2023-04-30T14:15:11.945Z,100300.38
2023-04-30T14:17:42.749Z,100309.54
2023-04-30T14:20:14.809Z,100304.79
2023-04-30T14:22:48.589Z,100309.74
2023-04-30T14:25:22.909Z,100307.81
2023-04-30T14:27:54.674Z,100308.67
2023-04-30T14:30:26.088Z,100306.05
2023-04-30T14:32:57.251Z,100306.24
2023-04-30T14:35:28.113Z,100311.40
2023-04-30T14:37:58.938Z,100307.04
2023-04-30T14:40:29.560Z,100310.43
2023-04-30T14:43:02.101Z,100305.17
2023-04-30T14:45:33.054Z,100306.48
2023-04-30T14:48:05.648Z,100302.99
2023-04-30T14:50:36.681Z,100310.79
2023-04-30T14:53:07.465Z,100303.27
2023-04-30T14:55:38.088Z,100302.23
2023-04-30T14:58:08.902Z,100303.21
2023-04-30T15:00:39.802Z,100311.64
2023-04-30T15:03:10.534Z,100313.98
2023-04-30T15:05:41.304Z,100323.61
2023-04-30T15:08:12.193Z,100326.52
2023-04-30T15:10:45.314Z,100330.08
2023-04-30T15:13:20.308Z,100331.81
2023-04-30T15:15:50.962Z,100333.09
2023-04-30T15:18:21.790Z,100334.23
2023-04-30T15:20:52.641Z,100336.04
2023-04-30T15:23:23.487Z,100336.45
2023-04-30T15:25:54.127Z,100334.56
2023-04-30T15:28:25.486Z,100333.41
2023-04-30T15:30:56.336Z,100330.94
2023-04-30T15:33:28.871Z,100334.39
2023-04-30T15:35:59.584Z,100336.33
2023-04-30T15:38:30.336Z,100335.00
2023-04-30T15:41:03.130Z,100333.83
2023-04-30T15:43:33.889Z,100336.29
2023-04-30T15:46:04.924Z,100336.92
2023-04-30T15:48:35.797Z,100338.16
2023-04-30T15:51:06.641Z,100344.09
2023-04-30T15:53:38.766Z,100343.48
2023-04-30T15:56:25.764Z,100347.10
2023-04-30T15:59:08.287Z,100346.14
2023-04-30T16:01:40.362Z,100346.50
2023-04-30T16:04:11.298Z,100349.21
2023-04-30T16:06:45.581Z,100353.79
2023-04-30T16:09:19.860Z,100355.43
2023-04-30T16:11:50.958Z,100361.81
2023-04-30T16:14:21.896Z,100360.90
2023-04-30T16:16:52.902Z,100363.16
2023-04-30T16:19:23.558Z,100365.74
2023-04-30T16:21:54.595Z,100368.65
2023-04-30T16:24:25.534Z,100366.59
2023-04-30T16:26:56.383Z,100368.47
2023-04-30T16:29:27.162Z,100368.70
2023-04-30T16:31:58.573Z,100370.67
2023-04-30T16:34:29.398Z,100378.81
2023-04-30T16:37:00.080Z,100383.93
2023-04-30T16:39:30.876Z,100389.76
2023-04-30T16:42:02.723Z,100392.30
2023-04-30T16:44:33.509Z,100398.24
2023-04-30T16:47:04.432Z,100399.05
2023-04-30T16:49:35.467Z,100401.83
2023-04-30T16:52:06.402Z,100400.55
2023-04-30T16:54:37.419Z,100405.55
2023-04-30T16:57:08.098Z,100401.28
2023-04-30T16:59:38.786Z,100405.67
2023-04-30T17:02:10.003Z,100407.50
2023-04-30T17:04:41.103Z,100411.30
2023-04-30T17:07:12.801Z,100414.83
2023-04-30T17:09:43.645Z,100418.97
2023-04-30T17:12:14.592Z,100426.16
2023-04-30T17:14:45.450Z,100428.23
2023-04-30T17:17:16.229Z,100434.52
2023-04-30T17:19:47.106Z,100444.13
2023-04-30T17:22:20.385Z,100451.63
2023-04-30T17:24:51.157Z,100467.58
2023-04-30T17:27:21.842Z,100478.43
2023-04-30T17:29:52.904Z,100479.27
2023-04-30T17:32:23.790Z,100483.04
2023-04-30T17:34:54.592Z,100483.14
2023-04-30T17:37:25.337Z,100495.73
2023-04-30T17:39:56.388Z,100498.35
2023-04-30T17:42:27.398Z,100504.14
2023-04-30T17:44:58.254Z,100516.60
2023-04-30T17:47:28.903Z,100522.49
2023-04-30T17:50:00.409Z,100518.55
2023-04-30T17:52:31.372Z,100520.26
2023-04-30T17:55:02.377Z,100523.38
2023-04-30T17:57:33.745Z,100535.42
2023-04-30T18:00:05.228Z,100535.42
2023-04-30T18:02:36.043Z,100535.26
2023-04-30T18:05:09.198Z,100542.36
2023-04-30T18:07:39.922Z,100547.30
2023-04-30T18:10:11.309Z,100550.21
2023-04-30T18:12:44.368Z,100555.34
2023-04-30T18:15:15.337Z,100564.91
2023-04-30T18:17:46.135Z,100566.91
2023-04-30T18:20:18.625Z,100574.42
2023-04-30T18:22:49.684Z,100591.45
2023-04-30T18:25:20.920Z,100594.01
2023-04-30T18:27:51.698Z,100599.80
2023-04-30T18:30:23.046Z,100601.30
2023-04-30T18:32:54.027Z,100602.67
2023-04-30T18:35:24.884Z,100604.08
2023-04-30T18:37:55.873Z,100605.46
2023-04-30T18:40:26.657Z,100612.08
2023-04-30T18:42:57.634Z,100612.60
2023-04-30T18:45:28.380Z,100614.86
2023-04-30T18:48:00.207Z,100620.36
2023-04-30T18:50:31.059Z,100627.16
2023-04-30T18:53:01.971Z,100632.67
2023-04-30T18:55:32.604Z,100631.41
2023-04-30T18:58:03.346Z,100635.56
2023-04-30T19:00:34.308Z,100636.90
2023-04-30T19:03:05.227Z,100635.78
2023-04-30T19:05:37.585Z,100638.37
2023-04-30T19:08:09.162Z,100636.27
2023-04-30T19:10:40.142Z,100642.91
2023-04-30T19:13:11.381Z,100650.09
2023-04-30T19:15:46.107Z,100652.89
2023-04-30T19:18:17.880Z,100654.52
2023-04-30T19:20:57.872Z,100651.84
2023-04-30T19:23:30.472Z,100659.61
2023-04-30T19:26:01.754Z,100653.91
2023-04-30T19:28:33.113Z,100651.30
2023-04-30T19:31:04.153Z,100656.65
2023-04-30T19:33:39.273Z,100654.98
2023-04-30T19:36:10.306Z,100651.61
2023-04-30T19:38:41.443Z,100651.05
2023-04-30T19:41:12.661Z,100651.56
2023-04-30T19:43:43.548Z,100650.38
2023-04-30T19:46:14.499Z,100658.20
2023-04-30T19:48:45.296Z,100660.39
2023-04-30T19:51:16.353Z,100658.56
2023-04-30T19:53:47.357Z,100659.59
2023-04-30T19:56:18.285Z,100655.90
2023-04-30T19:58:49.125Z,100656.48
2023-04-30T20:01:20.180Z,100655.35
2023-04-30T20:03:51.087Z,100654.64
2023-04-30T20:06:22.141Z,100650.67
2023-04-30T20:08:53.017Z,100649.31
2023-04-30T20:11:23.674Z,100649.54
2023-04-30T20:13:55.185Z,100649.34
2023-04-30T20:16:26.418Z,100650.83
2023-04-30T20:18:57.157Z,100651.71
2023-04-30T20:21:29.757Z,100654.29
2023-04-30T20:24:01.235Z,100658.45
2023-04-30T20:26:32.842Z,100661.66
2023-04-30T20:29:04.810Z,100666.55
2023-04-30T20:31:37.865Z,100672.57
2023-04-30T20:34:09.218Z,100671.17
2023-04-30T20:36:40.812Z,100674.27
2023-04-30T20:39:11.963Z,100671.98
2023-04-30T20:41:43.834Z,100669.64
2023-04-30T20:44:15.231Z,100672.14
2023-04-30T20:46:48.020Z,100673.41
2023-04-30T20:49:19.637Z,100676.86
2023-04-30T20:51:51.857Z,100673.84
2023-04-30T20:54:23.238Z,100673.36
2023-04-30T20:56:54.837Z,100671.03
2023-04-30T20:59:26.141Z,100668.69
2023-04-30T21:01:57.876Z,100671.71
2023-04-30T21:04:29.244Z,100673.11
2023-04-30T21:07:01.885Z,100680.29
2023-04-30T21:09:35.711Z,100681.25
2023-04-30T21:12:06.849Z,100684.59
2023-04-30T21:14:38.497Z,100683.09
2023-04-30T21:17:09.871Z,100684.05
2023-04-30T21:19:41.276Z,100682.55
2023-04-30T21:28:41.809Z,100686.98
2023-04-30T21:31:12.645Z,100692.59
2023-04-30T21:33:43.608Z,100694.34
2023-04-30T21:36:16.587Z,100697.73
2023-04-30T21:38:47.399Z,100701.58
2023-04-30T21:41:18.621Z,100705.38
2023-04-30T21:43:49.402Z,100713.25
2023-04-30T21:46:20.360Z,100725.09
2023-04-30T21:48:51.425Z,100726.80
2023-04-30T21:51:22.398Z,100734.00
2023-04-30T21:53:53.187Z,100733.96
2023-04-30T21:56:24.047Z,100738.31
2023-04-30T21:58:54.800Z,100737.34
2023-04-30T22:01:27.743Z,100738.67
2023-04-30T22:03:58.944Z,100739.78
2023-04-30T22:06:29.839Z,100746.01
2023-04-30T22:09:00.760Z,100745.55
2023-04-30T22:11:31.970Z,100742.64
2023-04-30T22:14:04.323Z,100744.08
2023-04-30T22:16:35.214Z,100743.98
2023-04-30T22:19:06.131Z,100742.79
2023-04-30T22:21:37.004Z,100743.86
2023-04-30T22:24:08.370Z,100744.84
2023-04-30T22:26:39.132Z,100745.08
2023-04-30T22:29:10.491Z,100742.24
2023-04-30T22:31:41.286Z,100743.51
2023-04-30T22:34:12.778Z,100748.64
2023-04-30T22:36:43.447Z,100751.85
2023-04-30T22:39:14.138Z,100758.05
2023-04-30T22:41:46.702Z,100763.63
2023-04-30T22:44:17.778Z,100761.70
2023-04-30T22:46:48.955Z,100765.80
2023-04-30T22:49:30.632Z,100765.11
2023-04-30T22:52:02.845Z,100757.95
2023-04-30T22:54:33.691Z,100757.08
2023-04-30T22:57:04.621Z,100759.80
2023-04-30T22:59:35.535Z,100757.23
2023-04-30T23:02:06.349Z,100756.70
2023-04-30T23:04:37.232Z,100754.42
2023-04-30T23:07:07.966Z,100750.96
2023-04-30T23:09:38.756Z,100754.34
2023-04-30T23:12:09.711Z,100757.55
2023-04-30T23:14:40.529Z,100750.16
2023-04-30T23:17:11.426Z,100749.85
2023-04-30T23:19:42.222Z,100749.23
2023-04-30T23:22:13.015Z,100752.80
2023-04-30T23:24:43.854Z,100755.46
2023-04-30T23:27:14.695Z,100750.09
2023-04-30T23:29:45.637Z,100752.33
2023-04-30T23:32:16.416Z,100750.45
2023-04-30T23:34:47.795Z,100753.55
2023-04-30T23:37:18.579Z,100752.23
2023-04-30T23:39:49.347Z,100751.29
2023-04-30T23:42:20.189Z,100747.19
2023-04-30T23:44:50.964Z,100748.19
2023-04-30T23:47:21.840Z,100747.88
2023-04-30T23:49:52.658Z,100746.41
2023-04-30T23:52:23.494Z,100747.23
2023-04-30T23:54:54.341Z,100748.31
2023-04-30T23:57:27.736Z,100751.28
2023-04-30T23:59:58.675Z,100750.92
